This is the latest recevied weather packets stored in our database for station/object W5HKR. If no packets are shown the sender has not sent any weather packets the latest 10 day(s).
| Time | Temp. | Humidity | Pressure | Rain* | Wind** | Luminosity | Snow |
|---|---|---|---|---|---|---|---|
| 1778112204 | 18.33° C | 91% | 990.6 hPa | 0 mm | - | - | - |
| 1778111904 | 18.33° C | 91% | 990.6 hPa | 0 mm | - | - | - |
| 1778111605 | 18.33° C | 91% | 990.6 hPa | 0 mm | - | - | - |
| 1778111515 | 18.33° C | 91% | 990.6 hPa | 0 mm | - | - | - |
| 1778111003 | 22.78° C | 71% | 982.7 hPa | 0 mm | - | - | - |
| 1778110704 | 18.33° C | 91% | 990.6 hPa | 0 mm | - | - | - |
| 1778110435 | 18.33° C | 91% | 990.6 hPa | 0 mm | - | - | - |
| 1778110405 | 18.33° C | 91% | 990.6 hPa | 0 mm | - | - | - |
| 1778110104 | 18.33° C | 91% | 990.6 hPa | 0 mm | - | - | - |
| 1778109805 | 18.33° C | 91% | 990.6 hPa | 0 mm | - | - | - |
| 1778109503 | 23.89° C | 70% | 982.2 hPa | 0 mm | - | - | - |
| 1778109354 | 23.89° C | 69% | 982.1 hPa | 0 mm | - | - | - |
| 1778109204 | 23.89° C | 69% | 982.1 hPa | 0 mm | - | - | - |
| 1778108904 | 18.33° C | 91% | 990.6 hPa | 0 mm | - | - | - |
| 1778108274 | 25° C | 68% | 982 hPa | 0 mm | - | - | - |
| 1778108004 | 25° C | 69% | 981.6 hPa | 0 mm | - | - | - |
| 1778107704 | 18.33° C | 91% | 990.6 hPa | 0 mm | - | - | - |
| 1778107403 | 18.33° C | 91% | 990.6 hPa | 0 mm | - | - | - |
| 1778107196 | 18.33° C | 91% | 990.6 hPa | 0 mm | - | - | - |
| 1778107105 | 25.56° C | 68% | 981.7 hPa | 0 mm | - | - | - |
| 1778106805 | 26.11° C | 69% | 981.4 hPa | 0 mm | - | - | - |
| 1778106504 | 18.33° C | 91% | 990.6 hPa | 0 mm | - | - | - |
| 1778106204 | 26.67° C | 69% | 980.8 hPa | 0 mm | - | - | - |
| 1778106114 | 26.11° C | 69% | 981.3 hPa | 0 mm | - | - | - |
| 1778105904 | 26.67° C | 68% | 981.2 hPa | 0 mm | - | - | - |
* Rain latest hour (hover to see other rain measurements)
** Current wind speed in m/s (hover to see current wind gust speed)